TimeCST,TemperatureF,Dew PointF,Humidity,Sea Level PressureIn,VisibilityMPH,Wind Direction,Wind SpeedMPH,Gust SpeedMPH,PrecipitationIn,Events,Conditions,WindDirDegrees,DateUTC
12:36 AM,53.6,53.6,100,30.26,10.0,North,4.6,-,N/A,,Light Drizzle,360,2013-01-27 06:36:00
12:55 AM,53.8,53.8,100,30.27,10.0,North,5.8,-,0.00,,Light Drizzle,10,2013-01-27 06:55:00
1:10 AM,51.8,51.8,100,30.27,10.0,North,6.9,-,N/A,,Clear,360,2013-01-27 07:10:00
1:11 AM,51.8,51.8,100,30.27,10.0,North,6.9,-,N/A,,Light Drizzle,360,2013-01-27 07:11:00
1:19 AM,51.8,51.8,100,30.27,8.0,North,6.9,-,N/A,,Light Drizzle,360,2013-01-27 07:19:00
1:23 AM,51.8,51.8,100,30.27,8.0,North,6.9,-,N/A,,Scattered Clouds,360,2013-01-27 07:23:00
1:26 AM,51.8,51.8,100,30.27,8.0,North,6.9,-,N/A,,Mostly Cloudy,360,2013-01-27 07:26:00
1:28 AM,51.8,51.8,100,30.27,7.0,North,6.9,-,N/A,,Light Drizzle,10,2013-01-27 07:28:00
1:51 AM,53.6,53.6,100,30.27,6.0,North,6.9,-,N/A,,Light Drizzle,10,2013-01-27 07:51:00
1:55 AM,52.7,52.7,100,30.27,7.0,North,6.9,-,0.00,,Light Drizzle,10,2013-01-27 07:55:00
2:18 AM,53.6,53.6,100,30.27,9.0,North,6.9,-,N/A,,Light Drizzle,10,2013-01-27 08:18:00
2:55 AM,52.5,52.5,100,30.27,10.0,North,5.8,-,0.00,,Light Drizzle,360,2013-01-27 08:55:00
3:55 AM,53.8,53.8,100,30.27,10.0,ENE,4.6,-,0.00,,Light Drizzle,70,2013-01-27 09:55:00
4:55 AM,54.0,53.8,99,30.26,10.0,NE,3.5,-,0.00,,Light Drizzle,50,2013-01-27 10:55:00
5:11 AM,53.6,53.6,100,30.27,10.0,NE,4.6,-,N/A,,Clear,50,2013-01-27 11:11:00
5:13 AM,51.8,51.8,100,30.27,10.0,NE,4.6,-,N/A,,Light Drizzle,50,2013-01-27 11:13:00
5:18 AM,51.8,51.8,100,30.27,10.0,NE,4.6,-,N/A,,Clear,50,2013-01-27 11:18:00
5:19 AM,51.8,51.8,100,30.27,10.0,NE,3.5,-,N/A,,Light Drizzle,50,2013-01-27 11:19:00
5:23 AM,51.8,51.8,100,30.27,10.0,ENE,4.6,-,N/A,,Clear,60,2013-01-27 11:23:00
5:26 AM,53.6,53.6,100,30.27,10.0,ENE,5.8,-,N/A,,Light Drizzle,60,2013-01-27 11:26:00
5:55 AM,53.6,53.6,100,30.27,10.0,ENE,5.8,-,0.00,,Light Drizzle,60,2013-01-27 11:55:00
6:25 AM,53.6,53.6,100,30.28,10.0,NE,3.5,-,N/A,,Clear,40,2013-01-27 12:25:00
6:29 AM,51.8,51.8,100,30.28,10.0,NE,4.6,-,N/A,,Light Drizzle,50,2013-01-27 12:29:00
6:55 AM,52.9,52.9,100,30.29,10.0,ENE,4.6,-,0.00,,Light Drizzle,70,2013-01-27 12:55:00
7:55 AM,54.9,54.9,100,30.30,10.0,ENE,6.9,-,0.00,,Light Drizzle,70,2013-01-27 13:55:00
8:07 AM,55.4,55.4,100,30.31,10.0,East,8.1,-,N/A,,Clear,80,2013-01-27 14:07:00
8:09 AM,55.4,55.4,100,30.31,10.0,ENE,8.1,-,N/A,,Light Drizzle,70,2013-01-27 14:09:00
8:55 AM,59.5,59.0,98,30.32,10.0,ENE,8.1,-,0.00,,Light Drizzle,70,2013-01-27 14:55:00
9:13 AM,60.8,59.0,94,30.33,10.0,ENE,8.1,-,N/A,,Clear,70,2013-01-27 15:13:00
9:19 AM,60.8,59.0,94,30.33,10.0,East,8.1,-,N/A,,Light Drizzle,90,2013-01-27 15:19:00
9:55 AM,63.3,59.2,86,30.33,10.0,East,5.8,-,0.00,,Light Drizzle,100,2013-01-27 15:55:00
10:03 AM,64.4,59.0,83,30.33,10.0,East,5.8,-,N/A,,Clear,100,2013-01-27 16:03:00
10:10 AM,64.4,59.0,83,30.33,10.0,East,6.9,-,N/A,Rain,Light Rain,100,2013-01-27 16:10:00
10:32 AM,66.2,60.8,83,30.33,10.0,ESE,5.8,-,N/A,,Clear,110,2013-01-27 16:32:00
10:34 AM,66.2,60.8,83,30.33,10.0,Variable,4.6,-,N/A,,Light Drizzle,0,2013-01-27 16:34:00
10:55 AM,66.6,61.5,84,30.33,10.0,ESE,9.2,-,0.00,,Light Drizzle,120,2013-01-27 16:55:00
11:07 AM,68.0,62.6,83,30.32,10.0,SE,6.9,-,N/A,,Clear,140,2013-01-27 17:07:00
11:11 AM,68.0,62.6,83,30.32,10.0,SSE,8.1,-,N/A,,Light Drizzle,150,2013-01-27 17:11:00
11:55 AM,66.7,61.9,84,30.30,10.0,SE,9.2,-,0.00,,Light Drizzle,140,2013-01-27 17:55:00
12:02 PM,66.2,62.6,88,30.30,10.0,SE,6.9,-,N/A,,Clear,140,2013-01-27 18:02:00
12:05 PM,66.2,62.6,88,30.30,10.0,SE,8.1,-,N/A,,Light Drizzle,130,2013-01-27 18:05:00
12:44 PM,68.0,62.6,83,30.28,10.0,SSE,8.1,-,N/A,,Clear,150,2013-01-27 18:44:00
12:45 PM,68.0,62.6,83,30.28,10.0,SSE,8.1,-,N/A,,Light Drizzle,150,2013-01-27 18:45:00
12:55 PM,68.0,63.1,84,30.27,10.0,SE,8.1,-,0.00,,Light Drizzle,130,2013-01-27 18:55:00
1:50 PM,68.0,62.6,83,30.27,10.0,SE,8.1,-,N/A,,Clear,140,2013-01-27 19:50:00
1:51 PM,68.0,62.6,83,30.27,10.0,SE,8.1,-,N/A,,Light Drizzle,130,2013-01-27 19:51:00
1:55 PM,67.8,63.0,84,30.27,10.0,SSE,5.8,-,0.00,,Light Drizzle,150,2013-01-27 19:55:00
2:10 PM,68.0,62.6,83,30.27,10.0,SSE,6.9,-,N/A,,Clear,160,2013-01-27 20:10:00
2:20 PM,68.0,62.6,83,30.27,10.0,SSE,8.1,-,N/A,,Light Drizzle,160,2013-01-27 20:20:00
2:42 PM,68.0,62.6,83,30.27,10.0,SSE,5.8,-,N/A,,Clear,150,2013-01-27 20:42:00
2:43 PM,68.0,62.6,83,30.27,10.0,SSE,5.8,-,N/A,Rain,Light Rain,150,2013-01-27 20:43:00
2:48 PM,68.0,62.6,83,30.27,10.0,SE,5.8,-,N/A,,Clear,140,2013-01-27 20:48:00
2:55 PM,68.4,63.0,83,30.27,10.0,SSE,3.5,-,0.00,,Clear,150,2013-01-27 20:55:00
2:56 PM,68.0,62.6,83,30.27,10.0,Variable,4.6,-,N/A,Rain,Light Rain,0,2013-01-27 20:56:00
3:11 PM,68.0,62.6,83,30.27,10.0,SSE,5.8,-,N/A,,Clear,150,2013-01-27 21:11:00
3:40 PM,68.0,62.6,83,30.27,10.0,South,8.1,-,N/A,Rain,Light Rain,170,2013-01-27 21:40:00
3:55 PM,66.7,63.0,88,30.27,10.0,South,5.8,-,0.00,,Light Drizzle,170,2013-01-27 21:55:00
3:57 PM,66.2,62.6,88,30.27,10.0,South,5.8,-,N/A,,Clear,170,2013-01-27 21:57:00
4:24 PM,66.2,62.6,88,30.28,10.0,South,3.5,-,N/A,Rain,Light Rain,180,2013-01-27 22:24:00
4:55 PM,64.8,64.2,98,30.27,10.0,Calm,Calm,-,0.00,,Clear,0,2013-01-27 22:55:00
4:58 PM,64.4,64.4,100,30.27,10.0,Calm,Calm,-,N/A,Rain,Light Rain,0,2013-01-27 22:58:00
5:08 PM,64.4,64.4,100,30.27,10.0,Calm,Calm,-,N/A,,Clear,0,2013-01-27 23:08:00
5:27 PM,64.4,64.4,100,30.27,10.0,Calm,Calm,-,N/A,Rain,Light Rain,0,2013-01-27 23:27:00
5:30 PM,64.4,64.4,100,30.27,10.0,Calm,Calm,-,N/A,,Clear,0,2013-01-27 23:30:00
5:35 PM,64.4,64.4,100,30.27,10.0,Calm,Calm,-,N/A,Rain,Light Rain,0,2013-01-27 23:35:00
5:37 PM,62.6,62.6,100,30.27,10.0,Calm,Calm,-,N/A,,Clear,0,2013-01-27 23:37:00
5:41 PM,64.4,64.4,100,30.27,10.0,Calm,Calm,-,N/A,,Light Drizzle,0,2013-01-27 23:41:00
5:55 PM,63.9,63.9,100,30.27,10.0,Calm,Calm,-,0.00,,Light Drizzle,0,2013-01-27 23:55:00
6:10 PM,62.6,62.6,100,30.28,10.0,Calm,Calm,-,N/A,,Clear,0,2013-01-28 00:10:00
6:17 PM,62.6,62.6,100,30.28,10.0,Calm,Calm,-,N/A,,Light Drizzle,0,2013-01-28 00:17:00
6:21 PM,60.8,60.8,100,30.28,10.0,Calm,Calm,-,N/A,,Light Drizzle,0,2013-01-28 00:21:00
6:27 PM,60.8,60.8,100,30.28,10.0,Calm,Calm,-,N/A,,Mostly Cloudy,0,2013-01-28 00:27:00
6:55 PM,61.3,61.3,100,30.29,10.0,Calm,Calm,-,0.00,,Overcast,0,2013-01-28 00:55:00
7:01 PM,62.6,62.6,100,30.29,10.0,Calm,Calm,-,N/A,,Light Drizzle,0,2013-01-28 01:01:00
7:20 PM,60.8,60.8,100,30.29,10.0,Calm,Calm,-,N/A,,Mostly Cloudy,0,2013-01-28 01:20:00
7:31 PM,60.8,60.8,100,30.29,10.0,Calm,Calm,-,N/A,,Mostly Cloudy,0,2013-01-28 01:31:00
7:32 PM,59.0,59.0,100,30.29,10.0,ENE,3.5,-,N/A,,Light Drizzle,60,2013-01-28 01:32:00
7:39 PM,59.0,59.0,100,30.30,10.0,Calm,Calm,-,N/A,,Mostly Cloudy,0,2013-01-28 01:39:00
7:51 PM,59.0,59.0,100,30.30,10.0,ENE,4.6,-,N/A,,Light Drizzle,70,2013-01-28 01:51:00
7:55 PM,58.3,58.1,99,30.30,10.0,ENE,4.6,-,0.00,,Light Drizzle,70,2013-01-28 01:55:00
8:55 PM,61.3,61.3,100,30.28,10.0,ESE,4.6,-,0.00,,Light Drizzle,110,2013-01-28 02:55:00
9:03 PM,60.8,60.8,100,30.29,10.0,ESE,4.6,-,N/A,,Partly Cloudy,110,2013-01-28 03:03:00
9:07 PM,60.8,60.8,100,30.28,10.0,East,4.6,-,N/A,,Light Drizzle,100,2013-01-28 03:07:00
9:24 PM,60.8,60.8,100,30.29,10.0,East,4.6,-,N/A,,Clear,100,2013-01-28 03:24:00
9:25 PM,60.8,60.8,100,30.29,10.0,East,4.6,-,N/A,Rain,Light Rain,100,2013-01-28 03:25:00
9:55 PM,61.3,61.3,100,30.28,10.0,East,4.6,-,0.00,,Light Drizzle,100,2013-01-28 03:55:00
10:55 PM,61.5,61.5,100,30.27,10.0,ESE,3.5,-,0.00,,Light Drizzle,120,2013-01-28 04:55:00
11:09 PM,57.2,57.2,100,30.28,7.0,North,3.5,-,N/A,,Clear,10,2013-01-28 05:09:00
11:22 PM,55.4,55.4,100,30.28,8.0,North,3.5,-,N/A,,Light Drizzle,10,2013-01-28 05:22:00
11:23 PM,55.4,55.4,100,30.28,8.0,North,3.5,-,N/A,,Clear,10,2013-01-28 05:23:00
11:26 PM,55.4,55.4,100,30.27,8.0,North,4.6,-,N/A,,Light Drizzle,10,2013-01-28 05:26:00
11:30 PM,55.4,55.4,100,30.27,8.0,North,4.6,-,N/A,,Light Drizzle,10,2013-01-28 05:30:00
11:37 PM,55.4,55.4,100,30.28,9.0,North,4.6,-,N/A,,Clear,360,2013-01-28 05:37:00
11:44 PM,53.6,53.6,100,30.28,2.5,North,4.6,-,N/A,,Clear,10,2013-01-28 05:44:00
11:45 PM,53.6,53.6,100,30.28,1.5,NNE,4.6,-,N/A,,Clear,20,2013-01-28 05:45:00
11:46 PM,53.6,53.6,100,30.28,1.2,NNE,4.6,-,N/A,,Clear,20,2013-01-28 05:46:00
11:47 PM,53.6,53.6,100,30.28,1.0,NNE,4.6,-,N/A,,Clear,20,2013-01-28 05:47:00
11:48 PM,53.6,53.6,100,30.28,0.8,NNE,4.6,-,N/A,,Clear,20,2013-01-28 05:48:00
11:50 PM,53.6,53.6,100,30.28,0.8,NNE,4.6,-,N/A,,Clear,30,2013-01-28 05:50:00
11:51 PM,53.6,53.6,100,30.28,0.5,NNE,4.6,-,N/A,Fog,Fog,30,2013-01-28 05:51:00
11:52 PM,53.6,53.6,100,30.28,0.5,NNE,3.5,-,N/A,Fog,Fog,30,2013-01-28 05:52:00
11:55 PM,54.0,54.0,100,30.28,0.5,NNE,3.5,-,0.00,Fog,Fog,30,2013-01-28 05:55:00
11:59 PM,53.6,53.6,100,30.28,0.5,Calm,Calm,-,N/A,Fog,Fog,0,2013-01-28 05:59:00